Time;durP1;ratioP1;P1;durP2;ratioP2;P2;SDS_P1;SDS_P2;PMS_P1;PMS_P2;Temp;Humidity;BMP_temperature;BMP_pressure;BME280_temperature;BME280_humidity;BME280_pressure;Samples;Min_cycle;Max_cycle;Signal;HPM_P1;HPM_P2
2021/04/18 00:00:00;;;;;;;1.45;1.35;;;4.60;99.90;;;;;;5049754;28;20207;-68
2021/04/18 00:02:25;;;;;;;0.90;0.90;;;4.60;99.90;;;;;;5033906;28;20174;-67
2021/04/18 00:04:51;;;;;;;0.87;0.87;;;4.60;99.90;;;;;;5034454;28;20401;-67
2021/04/18 00:07:17;;;;;;;0.73;0.73;;;4.60;99.90;;;;;;5053637;28;20212;-67
2021/04/18 00:09:44;;;;;;;1.50;1.40;;;4.60;99.90;;;;;;5038753;28;20178;-67
2021/04/18 00:12:10;;;;;;;1.10;1.00;;;4.50;99.90;;;;;;5034820;28;20173;-67
2021/04/18 00:14:37;;;;;;;1.05;1.05;;;4.50;99.90;;;;;;5046256;28;20204;-67
2021/04/18 00:17:03;;;;;;;0.80;0.80;;;4.50;99.90;;;;;;5037349;28;20340;-68
2021/04/18 00:19:33;;;;;;;1.15;0.80;;;4.50;99.90;;;;;;5044994;28;20555;-67
2021/04/18 00:21:59;;;;;;;1.02;0.95;;;4.50;99.90;;;;;;5053642;28;20181;-67
2021/04/18 00:24:24;;;;;;;1.80;1.63;;;4.50;99.90;;;;;;5042165;28;20178;-68
2021/04/18 00:26:50;;;;;;;2.00;1.37;;;4.40;99.90;;;;;;5033442;28;20182;-67
2021/04/18 00:29:16;;;;;;;1.33;1.23;;;4.40;99.90;;;;;;5042224;28;20205;-67
2021/04/18 00:31:41;;;;;;;1.20;1.20;;;4.40;99.90;;;;;;5042722;28;20178;-68
2021/04/18 00:34:07;;;;;;;1.37;1.37;;;4.40;99.90;;;;;;5050457;28;20169;-67
2021/04/18 00:36:32;;;;;;;2.33;1.43;;;4.30;99.90;;;;;;5053239;28;20194;-67
2021/04/18 00:38:58;;;;;;;2.00;1.63;;;4.30;99.90;;;;;;5037063;28;20600;-67
2021/04/18 00:41:24;;;;;;;6.80;1.80;;;4.30;99.90;;;;;;5033381;28;20169;-68
2021/04/18 00:43:50;;;;;;;0.63;0.63;;;4.30;99.90;;;;;;5045523;28;20426;-68
2021/04/18 00:46:16;;;;;;;0.93;0.93;;;4.40;99.90;;;;;;5052895;28;20435;-67
2021/04/18 00:48:43;;;;;;;1.50;1.40;;;4.40;99.90;;;;;;5040436;28;20205;-68
2021/04/18 00:51:16;;;;;;;0.60;0.60;;;4.40;99.90;;;;;;5033245;28;20252;-68
2021/04/18 00:53:43;;;;;;;1.10;1.00;;;4.40;99.90;;;;;;5044672;28;20244;-68
2021/04/18 00:56:09;;;;;;;1.70;1.60;;;4.50;99.90;;;;;;5047381;28;20620;-69
2021/04/18 00:58:37;;;;;;;1.33;1.23;;;4.40;99.90;;;;;;5043244;28;20188;-68
2021/04/18 01:01:04;;;;;;;1.35;1.25;;;4.50;99.90;;;;;;5053272;28;20173;-68
2021/04/18 01:03:30;;;;;;;1.15;1.15;;;4.50;99.90;;;;;;5043672;28;20571;-68
2021/04/18 01:05:56;;;;;;;0.43;0.43;;;4.50;99.90;;;;;;5031465;28;20229;-68
2021/04/18 01:08:22;;;;;;;1.67;1.57;;;4.60;99.90;;;;;;5040252;28;20244;-68
2021/04/18 01:10:47;;;;;;;2.00;0.83;;;4.50;99.90;;;;;;5053143;28;20169;-68
2021/04/18 01:13:13;;;;;;;1.27;0.90;;;4.50;99.90;;;;;;5046986;28;20178;-68
2021/04/18 01:15:39;;;;;;;2.03;1.93;;;4.50;99.90;;;;;;5032613;28;20213;-68
2021/04/18 01:18:05;;;;;;;1.92;1.83;;;4.50;99.90;;;;;;5035527;28;20177;-68
2021/04/18 01:20:31;;;;;;;1.50;1.40;;;4.50;99.90;;;;;;5047776;28;20686;-67
2021/04/18 01:22:57;;;;;;;0.70;0.70;;;4.50;99.90;;;;;;5034063;28;20268;-67
2021/04/18 01:25:22;;;;;;;1.10;1.10;;;4.50;99.90;;;;;;5052077;28;20419;-68
2021/04/18 01:27:49;;;;;;;1.13;1.13;;;4.50;99.90;;;;;;5051860;28;20612;-68
2021/04/18 01:30:18;;;;;;;1.33;1.33;;;4.50;99.90;;;;;;5032931;28;20261;-68
2021/04/18 01:32:46;;;;;;;1.10;1.00;;;4.60;99.90;;;;;;5037326;28;20174;-68
2021/04/18 01:35:13;;;;;;;2.45;1.48;;;4.60;99.90;;;;;;5050415;28;20528;-68
2021/04/18 01:37:38;;;;;;;0.60;0.60;;;4.60;99.90;;;;;;5052641;28;20563;-68
2021/04/18 01:40:06;;;;;;;2.60;1.80;;;4.60;99.90;;;;;;5052212;28;20174;-68
2021/04/18 01:42:33;;;;;;;1.45;1.35;;;4.60;99.90;;;;;;5053143;28;20173;-68
2021/04/18 01:44:59;;;;;;;3.05;2.00;;;4.70;99.90;;;;;;5050990;28;20178;-68
2021/04/18 01:47:25;;;;;;;1.43;1.10;;;4.60;99.90;;;;;;5051216;28;20209;-68
2021/04/18 01:49:50;;;;;;;1.83;1.47;;;4.60;99.90;;;;;;5052719;28;20222;-68
2021/04/18 01:52:16;;;;;;;1.60;1.50;;;4.60;99.90;;;;;;5034409;28;20243;-68
2021/04/18 01:54:42;;;;;;;1.87;1.77;;;4.60;99.90;;;;;;5035956;28;20178;-68
2021/04/18 01:57:07;;;;;;;1.10;1.10;;;4.60;99.90;;;;;;5053435;28;20197;-68
2021/04/18 01:59:33;;;;;;;2.53;2.30;;;4.60;99.90;;;;;;5056134;28;20192;-68
2021/04/18 02:02:10;;;;;;;1.03;1.03;;;4.60;99.90;;;;;;5040066;28;20512;-68
2021/04/18 02:04:36;;;;;;;2.00;1.90;;;4.60;99.90;;;;;;5035907;28;20174;-68
2021/04/18 02:07:03;;;;;;;3.13;2.50;;;4.60;99.90;;;;;;5051606;28;20236;-68
2021/04/18 02:09:32;;;;;;;3.70;1.15;;;4.60;99.90;;;;;;5043183;28;20201;-68
2021/04/18 02:11:59;;;;;;;1.73;1.60;;;4.60;99.90;;;;;;5035916;28;20170;-68
2021/04/18 02:14:25;;;;;;;1.67;1.58;;;4.60;99.90;;;;;;5037016;28;20178;-67
2021/04/18 02:16:51;;;;;;;2.88;1.20;;;4.70;99.90;;;;;;5051864;28;20208;-67
2021/04/18 02:19:18;;;;;;;0.60;0.60;;;4.70;99.90;;;;;;5045785;28;20193;-68
2021/04/18 02:21:44;;;;;;;1.52;1.10;;;4.70;99.90;;;;;;5035775;28;20162;-68
2021/04/18 02:24:09;;;;;;;3.90;1.65;;;4.70;99.90;;;;;;5043523;28;20180;-67
2021/04/18 02:26:35;;;;;;;0.77;0.77;;;4.70;99.90;;;;;;5055664;28;20191;-68
2021/04/18 02:29:01;;;;;;;1.57;1.47;;;4.70;99.90;;;;;;5047509;28;20526;-67
2021/04/18 02:31:26;;;;;;;1.67;1.63;;;4.70;99.90;;;;;;5050426;28;20263;-67
2021/04/18 02:33:52;;;;;;;1.70;1.60;;;4.70;99.90;;;;;;5048389;28;20178;-68
2021/04/18 02:36:18;;;;;;;1.70;1.60;;;4.60;99.90;;;;;;5035743;28;20190;-68
2021/04/18 02:38:43;;;;;;;1.20;1.20;;;4.70;99.90;;;;;;5044604;28;20501;-67
2021/04/18 02:41:09;;;;;;;1.63;1.53;;;4.60;99.90;;;;;;5055408;28;20201;-68
2021/04/18 02:43:34;;;;;;;2.20;2.10;;;4.70;99.90;;;;;;5047863;28;20170;-68
2021/04/18 02:46:00;;;;;;;3.03;1.60;;;4.70;99.90;;;;;;5048009;28;20583;-68
2021/04/18 02:48:26;;;;;;;1.70;1.70;;;4.70;99.90;;;;;;5049294;28;20201;-68
2021/04/18 02:50:52;;;;;;;2.60;2.50;;;4.70;99.90;;;;;;5035444;28;20176;-68
2021/04/18 02:53:17;;;;;;;1.20;1.20;;;4.70;99.90;;;;;;5039038;28;20169;-67
2021/04/18 02:55:43;;;;;;;2.53;2.37;;;4.60;99.90;;;;;;5049901;28;20491;-68
2021/04/18 02:58:09;;;;;;;2.17;1.90;;;4.70;99.90;;;;;;5037139;28;20201;-68
2021/04/18 03:00:34;;;;;;;6.13;2.40;;;4.70;99.90;;;;;;5055264;28;20253;-67
2021/04/18 03:03:00;;;;;;;1.87;1.77;;;4.70;99.90;;;;;;5053285;28;20636;-67
2021/04/18 03:05:26;;;;;;;1.90;1.80;;;4.70;99.90;;;;;;5034366;28;20184;-68
2021/04/18 03:07:51;;;;;;;1.30;1.30;;;4.70;99.90;;;;;;5034745;28;20691;-67
2021/04/18 03:10:17;;;;;;;8.90;2.73;;;4.70;99.90;;;;;;5050839;28;20454;-67
2021/04/18 03:12:43;;;;;;;1.23;1.13;;;4.70;99.90;;;;;;5039067;28;20169;-68
2021/04/18 03:15:09;;;;;;;1.83;1.73;;;4.70;99.90;;;;;;5054407;28;20252;-68
2021/04/18 03:17:35;;;;;;;1.45;1.45;;;4.80;99.90;;;;;;5051551;28;20202;-68
2021/04/18 03:20:00;;;;;;;0.73;0.73;;;4.80;99.90;;;;;;5034925;28;20170;-68
2021/04/18 03:22:26;;;;;;;0.73;0.73;;;4.80;99.90;;;;;;5040026;28;20232;-68
2021/04/18 03:24:52;;;;;;;2.80;1.20;;;4.80;99.90;;;;;;5052370;28;20209;-68
2021/04/18 03:27:17;;;;;;;1.40;1.40;;;4.80;99.90;;;;;;5037865;28;20201;-68
2021/04/18 03:29:43;;;;;;;1.70;1.60;;;4.80;99.90;;;;;;5054579;28;20174;-68
2021/04/18 03:32:09;;;;;;;2.37;2.27;;;4.80;99.90;;;;;;5052226;28;20563;-67
2021/04/18 03:34:35;;;;;;;1.23;1.23;;;4.80;99.90;;;;;;5034253;28;20231;-68
2021/04/18 03:37:00;;;;;;;1.87;1.53;;;4.80;99.90;;;;;;5048995;28;20225;-68
2021/04/18 03:39:26;;;;;;;1.60;1.20;;;4.80;99.90;;;;;;5034315;28;20774;-68
2021/04/18 03:41:51;;;;;;;5.03;2.27;;;4.80;99.90;;;;;;5034327;28;20181;-68
2021/04/18 03:44:17;;;;;;;2.13;2.03;;;4.80;99.90;;;;;;5052318;28;20275;-68
2021/04/18 03:46:43;;;;;;;1.80;1.70;;;4.80;99.90;;;;;;5035220;28;20604;-68
2021/04/18 03:49:08;;;;;;;2.00;1.73;;;4.80;99.90;;;;;;5049065;28;20693;-68
2021/04/18 03:51:34;;;;;;;1.50;1.50;;;4.80;99.90;;;;;;5053964;28;20201;-68
2021/04/18 03:54:00;;;;;;;1.77;1.13;;;4.80;99.90;;;;;;5038298;28;20182;-67
2021/04/18 03:56:25;;;;;;;1.43;0.93;;;4.80;99.90;;;;;;5032781;28;20198;-68
2021/04/18 03:58:51;;;;;;;1.17;1.10;;;4.90;99.90;;;;;;5047104;28;20478;-68
2021/04/18 04:01:17;;;;;;;2.07;1.93;;;5.00;99.90;;;;;;5037316;28;20667;-67
2021/04/18 04:03:42;;;;;;;1.13;1.13;;;4.90;99.90;;;;;;5033845;28;20177;-68
2021/04/18 04:06:08;;;;;;;1.10;1.10;;;4.80;99.90;;;;;;5034035;28;20206;-68
2021/04/18 04:08:34;;;;;;;1.90;1.80;;;4.80;99.90;;;;;;5035942;28;20703;-68
2021/04/18 04:11:00;;;;;;;1.80;1.13;;;4.90;99.90;;;;;;5053932;28;20551;-68
2021/04/18 04:13:25;;;;;;;1.70;1.60;;;4.90;99.90;;;;;;5036403;28;20185;-68
2021/04/18 04:15:51;;;;;;;2.03;1.90;;;4.90;99.90;;;;;;5048827;28;20280;-68
2021/04/18 04:18:16;;;;;;;1.53;1.43;;;4.90;99.90;;;;;;5038300;28;20193;-67
2021/04/18 04:20:42;;;;;;;2.23;2.00;;;4.80;99.90;;;;;;5033722;28;20174;-68
2021/04/18 04:23:08;;;;;;;1.37;1.27;;;4.80;99.90;;;;;;5034071;28;20190;-68
2021/04/18 04:25:35;;;;;;;1.80;1.70;;;4.80;99.90;;;;;;5033339;28;20186;-68
2021/04/18 04:28:01;;;;;;;1.88;1.77;;;4.80;99.90;;;;;;5044822;28;20227;-67
2021/04/18 04:30:27;;;;;;;3.30;2.00;;;4.80;99.90;;;;;;5038725;28;20182;-68
2021/04/18 04:32:53;;;;;;;3.33;2.40;;;4.80;99.90;;;;;;5043234;28;20185;-67
2021/04/18 04:35:19;;;;;;;3.33;3.03;;;4.80;99.90;;;;;;5051156;28;20248;-67
2021/04/18 04:37:45;;;;;;;3.38;2.53;;;4.80;99.90;;;;;;5044529;28;20174;-67
2021/04/18 04:40:11;;;;;;;2.33;2.23;;;4.80;99.90;;;;;;5043816;28;20243;-67
2021/04/18 04:42:36;;;;;;;1.02;1.02;;;4.80;99.90;;;;;;5033599;28;20576;-67
2021/04/18 04:45:03;;;;;;;1.73;1.43;;;4.80;99.90;;;;;;5036737;28;20178;-68
2021/04/18 04:47:29;;;;;;;2.22;2.05;;;4.90;99.90;;;;;;5052827;28;20213;-67
2021/04/18 04:49:56;;;;;;;1.90;1.80;;;4.90;99.90;;;;;;5051011;28;20181;-66
2021/04/18 04:52:22;;;;;;;2.08;1.73;;;4.90;99.90;;;;;;5033234;28;20166;-67
2021/04/18 04:54:47;;;;;;;3.20;2.30;;;4.90;99.90;;;;;;5033432;28;20162;-66
2021/04/18 04:57:13;;;;;;;2.87;2.77;;;4.90;99.90;;;;;;5053147;28;20196;-67
2021/04/18 04:59:38;;;;;;;3.57;2.97;;;4.90;99.90;;;;;;5053077;28;20310;-67
2021/04/18 05:02:04;;;;;;;1.93;1.83;;;5.00;99.90;;;;;;5033994;28;20526;-66
2021/04/18 05:04:30;;;;;;;1.10;1.00;;;4.90;99.90;;;;;;5032861;28;20174;-67
2021/04/18 05:06:56;;;;;;;1.40;1.30;;;5.00;99.90;;;;;;5051233;28;20197;-67
2021/04/18 05:09:21;;;;;;;2.13;1.50;;;5.10;99.90;;;;;;5053223;28;20196;-67
2021/04/18 05:11:47;;;;;;;2.10;1.80;;;5.10;99.90;;;;;;5052403;28;20196;-67
2021/04/18 05:14:12;;;;;;;1.67;1.43;;;5.10;99.90;;;;;;5037537;28;20181;-67
2021/04/18 05:16:38;;;;;;;0.73;0.73;;;5.10;99.90;;;;;;5033081;28;20190;-66
2021/04/18 05:19:04;;;;;;;0.97;0.97;;;5.20;99.90;;;;;;5045215;28;20212;-67
2021/04/18 05:21:29;;;;;;;1.90;1.73;;;5.20;99.90;;;;;;5051693;28;20272;-68
2021/04/18 05:23:55;;;;;;;1.10;1.10;;;5.20;99.90;;;;;;5041465;28;20166;-69
2021/04/18 05:26:22;;;;;;;2.70;1.60;;;5.20;99.90;;;;;;5043970;28;20205;-69
2021/04/18 05:28:48;;;;;;;1.42;1.33;;;5.30;99.90;;;;;;5047256;28;20200;-67
2021/04/18 05:31:14;;;;;;;1.90;1.80;;;5.30;99.90;;;;;;5036832;28;20801;-67
2021/04/18 05:33:40;;;;;;;2.80;1.90;;;5.30;99.90;;;;;;5043593;28;20201;-68
2021/04/18 05:36:05;;;;;;;3.00;2.80;;;5.30;99.90;;;;;;5056186;28;20204;-67
2021/04/18 05:38:31;;;;;;;5.27;1.30;;;5.30;99.90;;;;;;5050410;28;20170;-67
2021/04/18 05:40:57;;;;;;;5.97;2.80;;;5.30;99.90;;;;;;5035419;28;20768;-67
2021/04/18 05:43:25;;;;;;;1.57;1.00;;;5.30;99.90;;;;;;5040559;28;20180;-66
2021/04/18 05:45:51;;;;;;;1.73;1.50;;;5.30;99.90;;;;;;5056310;28;20292;-67
2021/04/18 05:48:16;;;;;;;3.10;1.90;;;5.30;99.90;;;;;;5053392;28;20272;-67
2021/04/18 05:50:44;;;;;;;6.40;5.80;;;5.30;99.90;;;;;;5054771;28;20719;-68
2021/04/18 05:53:10;;;;;;;2.40;2.30;;;5.40;99.90;;;;;;5054449;28;20177;-66
2021/04/18 05:55:37;;;;;;;1.80;1.70;;;5.40;99.90;;;;;;5034703;28;20621;-67
2021/04/18 05:58:04;;;;;;;1.70;1.40;;;5.50;99.90;;;;;;5036165;28;20192;-67
2021/04/18 06:00:29;;;;;;;2.03;1.00;;;5.50;99.90;;;;;;5055686;28;20182;-67
2021/04/18 06:02:55;;;;;;;1.73;1.27;;;5.60;99.90;;;;;;5056359;28;20177;-67
2021/04/18 06:05:21;;;;;;;1.50;1.50;;;5.70;99.90;;;;;;5037194;28;20198;-68
2021/04/18 06:07:46;;;;;;;2.03;1.93;;;5.80;99.90;;;;;;5041060;28;20731;-69
2021/04/18 06:10:13;;;;;;;2.50;1.67;;;5.90;99.90;;;;;;5055994;28;20162;-66
2021/04/18 06:12:39;;;;;;;1.52;1.52;;;6.00;99.90;;;;;;5052125;28;20182;-67
2021/04/18 06:15:06;;;;;;;2.72;1.75;;;6.10;99.90;;;;;;5035629;28;20208;-68
2021/04/18 06:17:32;;;;;;;2.35;2.15;;;6.10;99.90;;;;;;5037999;28;20193;-67
2021/04/18 06:19:57;;;;;;;3.20;2.27;;;6.10;99.90;;;;;;5038513;28;20176;-67
2021/04/18 06:22:23;;;;;;;1.93;1.77;;;6.10;99.90;;;;;;5036067;28;20526;-67
2021/04/18 06:24:49;;;;;;;2.93;1.77;;;6.10;99.90;;;;;;5055464;28;20240;-67
2021/04/18 06:27:15;;;;;;;1.83;1.57;;;6.20;99.90;;;;;;5055590;28;20205;-69
2021/04/18 06:29:40;;;;;;;3.60;1.90;;;6.30;99.90;;;;;;5036816;28;20429;-68
2021/04/18 06:32:06;;;;;;;1.83;1.73;;;6.30;99.90;;;;;;5035735;28;20175;-67
2021/04/18 06:34:32;;;;;;;1.50;1.40;;;6.30;99.90;;;;;;5051554;28;20167;-68
2021/04/18 06:36:58;;;;;;;6.53;2.50;;;6.40;99.90;;;;;;5054960;28;20674;-67
2021/04/18 06:39:24;;;;;;;2.00;1.90;;;6.30;99.90;;;;;;5039998;28;20207;-67
2021/04/18 06:41:54;;;;;;;1.77;1.77;;;6.30;99.90;;;;;;5035474;28;20899;-68
2021/04/18 06:44:21;;;;;;;2.13;1.40;;;6.40;99.90;;;;;;5048778;28;20573;-68
2021/04/18 06:46:51;;;;;;;6.28;1.77;;;6.40;99.90;;;;;;5055089;28;20184;-67
2021/04/18 06:49:17;;;;;;;1.63;1.48;;;6.50;99.90;;;;;;5052384;28;20181;-68
2021/04/18 06:51:44;;;;;;;1.60;1.50;;;6.50;99.90;;;;;;5055085;28;20201;-68
2021/04/18 06:54:10;;;;;;;1.58;1.48;;;6.60;99.90;;;;;;5043380;28;20180;-66
2021/04/18 06:56:36;;;;;;;1.48;1.42;;;6.70;99.90;;;;;;5034997;28;20213;-68
2021/04/18 06:59:04;;;;;;;0.83;0.83;;;6.70;99.90;;;;;;5044160;28;20191;-68
2021/04/18 07:01:30;;;;;;;1.98;1.55;;;6.90;99.90;;;;;;5043479;28;20183;-68
2021/04/18 07:04:10;;;;;;;1.50;1.40;;;6.80;99.90;;;;;;5041846;28;20179;-68
2021/04/18 07:07:01;;;;;;;1.60;1.50;;;6.90;99.90;;;;;;5055091;28;20197;-67
2021/04/18 07:09:27;;;;;;;1.73;1.33;;;7.00;99.90;;;;;;5042508;28;20276;-68
2021/04/18 07:11:59;;;;;;;2.47;2.30;;;7.20;99.90;;;;;;5034859;28;20263;-66
2021/04/18 07:14:30;;;;;;;3.65;2.03;;;7.20;99.90;;;;;;5037532;28;20220;-67
2021/04/18 07:17:11;;;;;;;2.22;2.00;;;7.30;99.90;;;;;;5052774;28;20593;-68
2021/04/18 07:19:39;;;;;;;3.72;3.28;;;7.50;99.90;;;;;;5039745;28;20177;-69
2021/04/18 07:22:06;;;;;;;2.50;2.20;;;7.60;99.90;;;;;;5033762;28;20194;-66
2021/04/18 07:24:53;;;;;;;1.60;1.50;;;7.70;99.90;;;;;;5044204;28;20505;-68
2021/04/18 07:27:20;;;;;;;7.28;1.98;;;7.60;99.90;;;;;;5053958;28;20220;-66
2021/04/18 07:29:57;;;;;;;3.67;1.90;;;7.60;99.90;;;;;;5043675;28;20181;-66
2021/04/18 07:32:26;;;;;;;2.50;1.85;;;7.50;99.90;;;;;;5034366;28;20259;-70
2021/04/18 07:34:52;;;;;;;3.67;2.08;;;7.60;99.90;;;;;;5044097;28;20267;-74
2021/04/18 07:37:27;;;;;;;3.38;3.08;;;7.80;99.90;;;;;;5054266;28;20276;-70
2021/04/18 07:39:58;;;;;;;2.90;2.70;;;8.00;99.90;;;;;;5049967;28;20199;-70
2021/04/18 07:42:42;;;;;;;2.22;2.13;;;8.10;99.90;;;;;;5035552;28;20185;-70
2021/04/18 07:45:10;;;;;;;2.75;2.50;;;8.10;99.90;;;;;;5046062;28;20179;-69
2021/04/18 07:47:38;;;;;;;2.40;1.92;;;8.20;99.90;;;;;;5053993;28;20193;-69
2021/04/18 07:50:10;;;;;;;2.30;2.10;;;8.20;99.90;;;;;;5051736;28;20172;-72
2021/04/18 07:52:40;;;;;;;2.35;2.15;;;8.20;99.90;;;;;;5054322;28;20193;-71
2021/04/18 07:55:07;;;;;;;2.90;2.45;;;8.30;99.90;;;;;;5039453;28;20189;-73
2021/04/18 07:57:33;;;;;;;2.67;2.42;;;8.30;99.90;;;;;;5033774;28;20548;-70
2021/04/18 07:59:59;;;;;;;3.45;2.35;;;8.30;99.90;;;;;;5045509;28;20256;-71
2021/04/18 08:02:26;;;;;;;3.22;2.65;;;8.30;99.90;;;;;;5052584;28;20709;-70
2021/04/18 08:04:56;;;;;;;2.15;2.05;;;8.40;99.90;;;;;;5043096;28;20243;-72
2021/04/18 08:07:23;;;;;;;2.97;2.70;;;8.40;99.90;;;;;;5033286;28;20209;-73
2021/04/18 08:10:22;;;;;;;2.92;2.13;;;8.60;99.90;;;;;;5050905;28;20176;-72
2021/04/18 08:13:04;;;;;;;2.17;1.77;;;8.70;99.90;;;;;;5045849;28;20166;-71
2021/04/18 08:15:31;;;;;;;4.45;3.00;;;8.60;99.90;;;;;;5033065;28;20239;-76
2021/04/18 08:18:07;;;;;;;3.45;2.80;;;8.80;99.90;;;;;;5040021;28;20185;-70
2021/04/18 08:20:45;;;;;;;3.13;2.67;;;8.90;99.90;;;;;;5052228;28;20266;-71
2021/04/18 08:23:11;;;;;;;3.42;2.42;;;8.90;99.90;;;;;;5043977;28;20178;-69
2021/04/18 08:25:57;;;;;;;6.00;3.13;;;8.90;99.90;;;;;;5033115;28;20764;-71
2021/04/18 08:28:24;;;;;;;3.83;2.78;;;9.00;99.90;;;;;;5042958;28;20463;-73
2021/04/18 08:30:59;;;;;;;2.67;1.92;;;9.00;99.90;;;;;;5053360;28;20196;-70
2021/04/18 08:33:40;;;;;;;1.80;1.70;;;9.00;99.90;;;;;;5042149;28;20169;-70
2021/04/18 08:36:20;;;;;;;3.42;2.00;;;9.00;99.90;;;;;;5033115;28;20260;-68
2021/04/18 08:38:48;;;;;;;1.60;1.50;;;9.10;99.90;;;;;;5034247;28;20185;-71
2021/04/18 08:41:15;;;;;;;3.58;1.83;;;9.10;99.90;;;;;;5042101;28;20656;-68
2021/04/18 08:43:43;;;;;;;3.08;2.88;;;9.00;99.90;;;;;;5042067;28;20200;-70
2021/04/18 08:46:08;;;;;;;2.47;2.20;;;9.00;99.90;;;;;;5032989;28;20190;-68
2021/04/18 08:48:34;;;;;;;2.07;1.77;;;9.10;99.90;;;;;;5042095;28;20204;-69
2021/04/18 08:51:08;;;;;;;3.45;2.45;;;9.20;99.90;;;;;;5053149;28;20170;-70
2021/04/18 08:53:56;;;;;;;2.25;2.05;;;9.10;99.90;;;;;;5043611;28;20572;-72
2021/04/18 08:56:42;;;;;;;1.95;1.85;;;9.10;99.90;;;;;;5033037;28;20200;-69
2021/04/18 08:59:15;;;;;;;3.45;2.25;;;9.10;99.90;;;;;;5044287;28;20189;-69
2021/04/18 09:02:01;;;;;;;4.35;3.08;;;9.30;99.90;;;;;;5056834;28;20169;-68
2021/04/18 09:04:28;;;;;;;2.92;2.10;;;9.50;99.90;;;;;;5040418;28;20169;-68
2021/04/18 09:06:54;;;;;;;4.72;3.15;;;9.60;99.90;;;;;;5038964;28;20359;-72
2021/04/18 09:09:22;;;;;;;3.00;2.55;;;9.70;99.90;;;;;;5043226;28;20197;-70
2021/04/18 09:11:48;;;;;;;2.65;2.45;;;9.80;99.90;;;;;;5035904;28;20170;-68
2021/04/18 09:14:22;;;;;;;1.92;1.83;;;9.70;99.90;;;;;;5043725;28;20174;-70
2021/04/18 09:16:48;;;;;;;1.83;1.73;;;9.70;99.90;;;;;;5045385;28;20181;-69
2021/04/18 09:19:30;;;;;;;4.57;2.10;;;9.70;99.90;;;;;;5045528;28;20208;-70
2021/04/18 09:22:06;;;;;;;2.70;1.92;;;9.80;99.90;;;;;;5045698;28;20235;-70
2021/04/18 09:24:34;;;;;;;4.05;2.65;;;9.80;99.90;;;;;;5044030;28;20697;-71
2021/04/18 09:27:04;;;;;;;2.92;2.50;;;10.00;99.90;;;;;;5043339;28;20194;-68
2021/04/18 09:29:30;;;;;;;2.50;1.60;;;10.10;99.90;;;;;;5045205;28;20197;-69
2021/04/18 09:32:08;;;;;;;3.83;2.30;;;10.20;99.90;;;;;;5044924;28;20220;-69
2021/04/18 09:34:35;;;;;;;4.70;2.53;;;10.30;99.80;;;;;;5043689;28;20177;-71
2021/04/18 09:37:06;;;;;;;4.93;2.22;;;10.30;99.90;;;;;;5044231;28;20182;-70
2021/04/18 09:39:32;;;;;;;4.10;3.20;;;10.50;99.90;;;;;;5050206;28;20182;-71
2021/04/18 09:41:59;;;;;;;5.82;2.25;;;10.70;99.60;;;;;;5055659;28;20529;-70
2021/04/18 09:44:33;;;;;;;4.65;3.45;;;10.90;99.40;;;;;;5041808;28;20218;-73
2021/04/18 09:47:04;;;;;;;3.83;2.33;;;11.10;99.30;;;;;;5035003;28;20195;-72
2021/04/18 09:49:52;;;;;;;5.50;3.40;;;11.20;99.30;;;;;;5050717;28;20508;-72
2021/04/18 09:52:25;;;;;;;4.50;3.50;;;11.30;98.30;;;;;;5038213;28;20181;-71
2021/04/18 09:54:52;;;;;;;4.30;2.55;;;11.30;97.70;;;;;;5054933;28;20477;-71
2021/04/18 09:57:21;;;;;;;4.60;2.60;;;11.20;98.30;;;;;;5055855;28;20206;-74
2021/04/18 10:00:02;;;;;;;3.80;2.60;;;11.30;98.50;;;;;;5037465;28;20833;-78
2021/04/18 10:02:27;;;;;;;5.10;2.63;;;11.40;97.00;;;;;;5036428;28;20456;-71
2021/04/18 10:05:11;;;;;;;11.93;3.77;;;11.40;97.30;;;;;;5036674;28;20402;-73
2021/04/18 10:07:37;;;;;;;4.80;2.57;;;11.50;98.20;;;;;;5039600;28;20205;-68
2021/04/18 10:10:05;;;;;;;5.90;2.97;;;11.60;97.50;;;;;;5043005;28;20410;-71
2021/04/18 10:12:55;;;;;;;5.87;2.47;;;11.50;98.10;;;;;;5043716;28;20173;-68
2021/04/18 10:15:20;;;;;;;4.73;2.57;;;11.50;97.80;;;;;;5041540;28;20418;-70
2021/04/18 10:17:46;;;;;;;4.60;2.10;;;11.30;97.50;;;;;;5041743;28;20424;-70
2021/04/18 10:20:22;;;;;;;7.50;3.60;;;11.40;98.30;;;;;;5034911;28;20262;-69
2021/04/18 10:23:08;;;;;;;4.77;2.67;;;11.60;98.80;;;;;;5034578;28;20431;-69
2021/04/18 10:25:35;;;;;;;8.27;4.97;;;11.70;98.10;;;;;;5036055;28;20421;-68
2021/04/18 10:28:01;;;;;;;4.47;2.70;;;11.80;97.60;;;;;;5045106;28;20461;-68
2021/04/18 10:30:28;;;;;;;8.00;3.00;;;12.00;97.40;;;;;;5045806;28;20415;-67
2021/04/18 10:32:54;;;;;;;4.70;2.80;;;12.10;95.80;;;;;;5044399;28;20423;-69
2021/04/18 10:35:20;;;;;;;7.97;3.53;;;11.90;95.80;;;;;;5053558;28;20414;-67
2021/04/18 10:37:46;;;;;;;6.00;3.00;;;11.90;96.40;;;;;;5046129;28;20990;-69
2021/04/18 10:40:13;;;;;;;6.43;2.90;;;11.90;95.50;;;;;;5044538;28;20634;-68
2021/04/18 10:42:39;;;;;;;11.63;6.83;;;12.00;95.60;;;;;;5051478;28;20429;-68
2021/04/18 10:45:09;;;;;;;5.83;2.93;;;12.00;96.00;;;;;;5036484;28;20434;-69
2021/04/18 10:47:35;;;;;;;6.40;3.20;;;12.30;96.40;;;;;;5048140;28;20254;-70
2021/04/18 10:50:03;;;;;;;5.80;3.20;;;12.60;95.50;;;;;;5039665;28;20469;-71
2021/04/18 10:52:33;;;;;;;8.43;3.23;;;12.90;95.60;;;;;;5045155;28;20431;-69
2021/04/18 10:55:00;;;;;;;7.20;3.70;;;13.10;94.20;;;;;;5051756;28;20410;-68
2021/04/18 10:57:27;;;;;;;4.87;3.17;;;13.30;93.50;;;;;;5052786;28;20444;-69
2021/04/18 10:59:54;;;;;;;7.97;3.60;;;13.40;93.50;;;;;;5035006;28;21002;-69
2021/04/18 11:02:21;;;;;;;6.50;3.40;;;13.50;94.30;;;;;;5044439;28;20461;-69
2021/04/18 11:04:46;;;;;;;6.13;3.33;;;13.20;93.50;;;;;;5054460;28;20820;-68
2021/04/18 11:07:12;;;;;;;5.30;2.77;;;13.10;94.80;;;;;;5052019;28;20282;-70
2021/04/18 11:09:38;;;;;;;7.47;4.07;;;12.80;93.50;;;;;;5054914;28;20176;-67
2021/04/18 11:12:18;;;;;;;9.23;2.87;;;12.50;93.80;;;;;;5048797;28;20420;-68
2021/04/18 11:14:45;;;;;;;8.80;2.90;;;12.30;94.10;;;;;;5034371;28;20502;-67
2021/04/18 11:17:11;;;;;;;6.73;3.13;;;12.00;94.50;;;;;;5040404;28;20499;-70
2021/04/18 11:19:37;;;;;;;6.78;3.53;;;11.80;94.80;;;;;;5054646;28;20408;-68
2021/04/18 11:22:02;;;;;;;6.60;3.25;;;11.90;95.20;;;;;;5047993;28;20419;-70
2021/04/18 11:24:28;;;;;;;6.03;2.93;;;11.80;95.80;;;;;;5033873;28;20374;-69
2021/04/18 11:26:54;;;;;;;6.40;3.47;;;11.90;95.60;;;;;;5035703;28;20189;-71
2021/04/18 11:29:20;;;;;;;5.23;2.50;;;11.90;95.10;;;;;;5033192;28;20534;-68
2021/04/18 11:31:46;;;;;;;6.27;3.20;;;12.00;95.10;;;;;;5034456;28;20183;-67
2021/04/18 11:34:11;;;;;;;6.53;3.30;;;12.10;95.60;;;;;;5053504;28;20973;-70
2021/04/18 11:36:39;;;;;;;9.27;4.23;;;12.10;94.90;;;;;;5045156;28;20720;-79
2021/04/18 11:39:05;;;;;;;5.10;2.43;;;12.10;94.90;;;;;;5052809;28;20181;-70
2021/04/18 11:41:35;;;;;;;5.50;2.72;;;12.10;95.30;;;;;;5054171;28;20502;-71
2021/04/18 11:44:01;;;;;;;6.87;3.40;;;12.20;95.10;;;;;;5036430;28;20190;-73
2021/04/18 11:46:27;;;;;;;5.80;3.50;;;12.10;94.90;;;;;;5043041;28;20448;-68
2021/04/18 11:48:55;;;;;;;8.00;4.33;;;12.00;96.40;;;;;;5050267;28;20810;-70
2021/04/18 11:51:21;;;;;;;4.75;2.42;;;12.00;95.60;;;;;;5053951;28;20167;-70
2021/04/18 11:53:47;;;;;;;6.50;3.53;;;11.80;95.90;;;;;;5036924;28;20186;-74
2021/04/18 11:56:13;;;;;;;8.00;2.70;;;11.80;95.50;;;;;;5033646;28;20433;-74
2021/04/18 11:58:45;;;;;;;6.30;3.53;;;11.80;95.90;;;;;;5046731;28;20441;-73
2021/04/18 12:01:11;;;;;;;6.00;3.20;;;11.80;95.50;;;;;;5041398;28;20852;-69
2021/04/18 12:03:37;;;;;;;5.83;2.63;;;11.70;95.60;;;;;;5022500;28;20531;-73
2021/04/18 12:06:06;;;;;;;5.13;2.80;;;11.80;94.80;;;;;;5036194;28;20204;-69
2021/04/18 12:08:31;;;;;;;5.13;2.70;;;12.00;94.10;;;;;;5052076;28;20215;-67
2021/04/18 12:10:57;;;;;;;6.27;2.90;;;12.00;94.30;;;;;;5035095;28;20492;-74
2021/04/18 12:13:24;;;;;;;8.30;4.13;;;12.20;94.80;;;;;;5053359;28;20244;-70
2021/04/18 12:15:49;;;;;;;7.87;3.00;;;12.30;95.50;;;;;;5052764;28;20188;-68
2021/04/18 12:18:16;;;;;;;5.20;2.60;;;12.40;96.30;;;;;;5032340;28;20422;-68
2021/04/18 12:20:42;;;;;;;7.00;3.70;;;12.70;95.90;;;;;;5040566;28;20173;-69
2021/04/18 12:23:15;;;;;;;6.87;3.00;;;12.80;96.00;;;;;;5052171;28;20918;-71
2021/04/18 12:25:43;;;;;;;8.70;3.90;;;12.80;95.30;;;;;;5051760;28;20199;-70
2021/04/18 12:28:10;;;;;;;5.77;3.37;;;12.90;95.60;;;;;;5042654;28;20493;-70
2021/04/18 12:30:36;;;;;;;6.87;3.30;;;13.00;94.90;;;;;;5033423;28;20887;-70
2021/04/18 12:33:02;;;;;;;8.97;3.20;;;12.90;94.90;;;;;;5040966;28;20413;-72
2021/04/18 12:35:28;;;;;;;5.93;3.43;;;12.90;94.90;;;;;;5052326;28;20476;-71
2021/04/18 12:37:54;;;;;;;5.10;3.10;;;12.90;94.80;;;;;;5047018;28;20433;-69
2021/04/18 12:40:20;;;;;;;8.00;4.00;;;12.80;95.10;;;;;;5031900;28;20185;-73
2021/04/18 12:42:47;;;;;;;6.53;3.60;;;12.70;95.00;;;;;;5045264;28;20184;-73
2021/04/18 12:45:13;;;;;;;8.93;3.37;;;12.50;94.50;;;;;;5031574;28;20450;-74
2021/04/18 12:47:39;;;;;;;6.70;2.90;;;12.30;94.30;;;;;;5035424;28;20502;-71
2021/04/18 12:50:06;;;;;;;7.20;2.80;;;12.10;94.50;;;;;;5053287;28;20479;-71
2021/04/18 12:52:35;;;;;;;7.23;3.07;;;12.00;95.10;;;;;;5050950;28;20418;-70
2021/04/18 12:55:01;;;;;;;5.67;2.90;;;12.00;95.40;;;;;;5015747;28;20461;-69
2021/04/18 12:57:27;;;;;;;4.40;2.40;;;12.10;95.80;;;;;;5048864;28;20453;-68